Portada
METAR-TAF:

METAR-TAF

Aeroports :

Wilmington, Carolina del Nord, Estats Units d'Amèrica

latitud: 34-16-14N, longitud: 077-54-09W, altitud: 10 m

Observació

L'informe es va fer fa 46 minuts, a les 22:53 UTC
Vent 5 kt del Nord-Est
Temperatura 3°C
Humitat 60%
Pressió 1028 hPa
Visibilitat: 16.1 km
Cel clar

METAR: KILM 132253Z 04005KT 10SM CLR 03/M04 A3036 RMK AO2 SLP280 T00281044

Hora: 18:39 (23:39 UTC)

Pronòstic

L'informe es va fer fa 6 hores i 19 minuts, a les 17:20 UTC
Pronòstic vàlid del 13 a les 18 UTC al 14 a les 18 UTC
Vent 11 kt del Nord/Nord-Est amb ràfegues de 17 kt
Visibilitat: 10 km
Cel clar
A partir de les 14 a les 0000 UTC
Vent 5 kt del Nord/Nord-Est
Visibilitat: 10 km
Cel clar
A partir de les 14 a les 0600 UTC
Vent 5 kt del Nord/Nord-Est
Visibilitat: 10 km
Cel ennuvolat a una alçada de 3000 ft

TAF: KILM 131720Z 1318/1418 02011G17KT P6SM SKC FM140000 03005KT P6SM SKC FM140600 03005KT P6SM BKN030

Observacions i pronòstics meteorològics de més de 4000 aeroports (METAR i TAF).

Les estacions disponibles són els punts grocs i vermells al mapa.

Posi el ratolí al punt desitjat per veure el nom de l'estació.

Feu clic per veure les observacions i els pronòstics meteorològics.

Per canviar el mapa: feu clic els botons verds amb una creu de color negre per apropar; al botó verd amb un guió per allunyar la imatge; o en les fletxes verdes per a mapes adjacents.


METAR-TAF: